sensor_id;sensor_type;location;lat;lon;timestamp;pressure;altitude;pressure_sealevel;temperature;humidity
70343;BME280;57767;42.068;24.752;2023-04-04T00:00:46;97578.91;;;9.26;100.00
70343;BME280;57767;42.068;24.752;2023-04-04T00:01:47;97572.84;;;9.26;100.00
70343;BME280;57767;42.068;24.752;2023-04-04T00:02:49;97583.03;;;9.34;99.08
70343;BME280;57767;42.068;24.752;2023-04-04T00:03:52;97584.66;;;9.35;99.13
70343;BME280;57767;42.068;24.752;2023-04-04T00:04:58;97583.94;;;9.40;99.19
70343;BME280;57767;42.068;24.752;2023-04-04T00:05:59;97583.72;;;9.41;98.13
70343;BME280;57767;42.068;24.752;2023-04-04T00:07:01;97582.91;;;9.41;98.26
70343;BME280;57767;42.068;24.752;2023-04-04T00:08:03;97582.44;;;9.44;98.05
70343;BME280;57767;42.068;24.752;2023-04-04T00:09:05;97561.81;;;9.41;98.25
70343;BME280;57767;42.068;24.752;2023-04-04T00:10:07;97556.44;;;9.47;97.87
70343;BME280;57767;42.068;24.752;2023-04-04T00:11:09;97564.78;;;9.56;97.48
70343;BME280;57767;42.068;24.752;2023-04-04T00:12:11;97555.03;;;9.56;97.50
70343;BME280;57767;42.068;24.752;2023-04-04T00:13:13;97554.38;;;9.49;97.32
70343;BME280;57767;42.068;24.752;2023-04-04T00:14:15;97567.88;;;9.53;97.27
70343;BME280;57767;42.068;24.752;2023-04-04T00:15:17;97567.88;;;9.53;97.57
70343;BME280;57767;42.068;24.752;2023-04-04T00:16:19;97561.81;;;9.52;97.84
70343;BME280;57767;42.068;24.752;2023-04-04T00:17:21;97559.66;;;9.49;97.19
70343;BME280;57767;42.068;24.752;2023-04-04T00:18:23;97553.09;;;9.52;97.53
70343;BME280;57767;42.068;24.752;2023-04-04T00:19:24;97543.72;;;9.44;97.48
70343;BME280;57767;42.068;24.752;2023-04-04T00:20:26;97544.88;;;9.48;97.72
70343;BME280;57767;42.068;24.752;2023-04-04T00:21:28;97546.72;;;9.48;97.29
70343;BME280;57767;42.068;24.752;2023-04-04T00:22:31;97548.84;;;9.51;98.20
70343;BME280;57767;42.068;24.752;2023-04-04T00:23:32;97553.09;;;9.52;98.09
70343;BME280;57767;42.068;24.752;2023-04-04T00:24:34;97553.25;;;9.45;98.04
70343;BME280;57767;42.068;24.752;2023-04-04T00:25:36;97553.81;;;9.47;97.87
70343;BME280;57767;42.068;24.752;2023-04-04T00:26:38;97548.78;;;9.46;98.00
70343;BME280;57767;42.068;24.752;2023-04-04T00:27:40;97539.94;;;9.40;98.28
70343;BME280;57767;42.068;24.752;2023-04-04T00:28:42;97540.91;;;9.34;98.56
70343;BME280;57767;42.068;24.752;2023-04-04T00:29:44;97546.75;;;9.36;99.30
70343;BME280;57767;42.068;24.752;2023-04-04T00:30:46;97546.16;;;9.34;99.66
70343;BME280;57767;42.068;24.752;2023-04-04T00:31:48;97552.00;;;9.36;99.12
70343;BME280;57767;42.068;24.752;2023-04-04T00:32:50;97540.44;;;9.37;99.65
70343;BME280;57767;42.068;24.752;2023-04-04T00:33:52;97543.97;;;9.31;100.00
70343;BME280;57767;42.068;24.752;2023-04-04T00:34:54;97545.38;;;9.22;99.95
70343;BME280;57767;42.068;24.752;2023-04-04T00:35:57;97548.00;;;9.22;100.00
70343;BME280;57767;42.068;24.752;2023-04-04T00:37:00;97548.34;;;9.25;100.00
70343;BME280;57767;42.068;24.752;2023-04-04T00:38:01;97550.97;;;9.25;100.00
70343;BME280;57767;42.068;24.752;2023-04-04T00:39:03;97559.66;;;9.26;100.00
70343;BME280;57767;42.068;24.752;2023-04-04T00:40:05;97546.28;;;9.16;100.00
70343;BME280;57767;42.068;24.752;2023-04-04T00:41:10;97553.06;;;9.12;100.00
70343;BME280;57767;42.068;24.752;2023-04-04T00:42:11;97556.59;;;9.17;100.00
70343;BME280;57767;42.068;24.752;2023-04-04T00:43:14;97552.25;;;9.11;100.00
70343;BME280;57767;42.068;24.752;2023-04-04T00:44:16;97545.63;;;9.09;100.00
70343;BME280;57767;42.068;24.752;2023-04-04T00:45:18;97541.72;;;9.11;100.00
70343;BME280;57767;42.068;24.752;2023-04-04T00:46:21;97541.25;;;9.14;100.00
70343;BME280;57767;42.068;24.752;2023-04-04T00:47:24;97539.78;;;9.07;100.00
70343;BME280;57767;42.068;24.752;2023-04-04T00:48:30;97536.94;;;8.96;100.00
70343;BME280;57767;42.068;24.752;2023-04-04T00:49:32;97543.88;;;9.03;100.00
70343;BME280;57767;42.068;24.752;2023-04-04T00:50:35;97534.28;;;8.96;100.00
70343;BME280;57767;42.068;24.752;2023-04-04T00:51:36;97531.75;;;8.90;100.00
70343;BME280;57767;42.068;24.752;2023-04-04T00:52:38;97546.97;;;8.99;100.00
70343;BME280;57767;42.068;24.752;2023-04-04T00:53:43;97545.94;;;9.01;100.00
70343;BME280;57767;42.068;24.752;2023-04-04T00:54:46;97526.84;;;8.93;100.00
70343;BME280;57767;42.068;24.752;2023-04-04T00:55:48;97533.72;;;8.94;100.00
70343;BME280;57767;42.068;24.752;2023-04-04T00:56:50;97521.34;;;8.83;100.00
70343;BME280;57767;42.068;24.752;2023-04-04T00:57:57;97534.63;;;8.88;100.00
70343;BME280;57767;42.068;24.752;2023-04-04T00:58:59;97524.09;;;8.88;100.00
70343;BME280;57767;42.068;24.752;2023-04-04T01:00:02;97519.63;;;8.89;100.00
70343;BME280;57767;42.068;24.752;2023-04-04T01:01:06;97515.28;;;8.83;100.00
70343;BME280;57767;42.068;24.752;2023-04-04T01:02:08;97505.66;;;8.88;100.00
70343;BME280;57767;42.068;24.752;2023-04-04T01:03:10;97506.16;;;8.85;100.00
70343;BME280;57767;42.068;24.752;2023-04-04T01:04:13;97511.72;;;8.89;100.00
70343;BME280;57767;42.068;24.752;2023-04-04T01:05:16;97506.81;;;8.92;100.00
70343;BME280;57767;42.068;24.752;2023-04-04T01:06:18;97513.56;;;9.00;100.00
70343;BME280;57767;42.068;24.752;2023-04-04T01:07:20;97513.81;;;8.98;100.00
70343;BME280;57767;42.068;24.752;2023-04-04T01:08:24;97518.50;;;8.96;100.00
70343;BME280;57767;42.068;24.752;2023-04-04T01:09:27;97528.00;;;8.97;100.00
70343;BME280;57767;42.068;24.752;2023-04-04T01:10:29;97532.47;;;8.97;100.00
70343;BME280;57767;42.068;24.752;2023-04-04T01:11:33;97532.25;;;8.98;100.00
70343;BME280;57767;42.068;24.752;2023-04-04T01:12:35;97536.78;;;9.03;100.00
70343;BME280;57767;42.068;24.752;2023-04-04T01:13:37;97538.41;;;9.04;100.00
70343;BME280;57767;42.068;24.752;2023-04-04T01:14:39;97539.19;;;9.05;100.00
70343;BME280;57767;42.068;24.752;2023-04-04T01:15:41;97527.78;;;8.99;100.00
70343;BME280;57767;42.068;24.752;2023-04-04T01:16:44;97524.88;;;9.01;100.00
70343;BME280;57767;42.068;24.752;2023-04-04T01:17:47;97525.47;;;9.03;100.00
70343;BME280;57767;42.068;24.752;2023-04-04T01:18:51;97515.38;;;8.99;100.00
70343;BME280;57767;42.068;24.752;2023-04-04T01:20:06;97523.97;;;9.07;100.00
70343;BME280;57767;42.068;24.752;2023-04-04T01:21:13;97514.69;;;9.04;100.00
70343;BME280;57767;42.068;24.752;2023-04-04T01:22:17;97514.03;;;9.09;100.00
70343;BME280;57767;42.068;24.752;2023-04-04T01:23:22;97495.59;;;9.09;100.00
70343;BME280;57767;42.068;24.752;2023-04-04T01:24:25;97495.13;;;9.12;100.00
70343;BME280;57767;42.068;24.752;2023-04-04T01:25:29;97506.22;;;9.14;100.00
70343;BME280;57767;42.068;24.752;2023-04-04T01:26:35;97498.88;;;9.16;100.00
70343;BME280;57767;42.068;24.752;2023-04-04T01:27:37;97497.50;;;9.13;100.00
70343;BME280;57767;42.068;24.752;2023-04-04T01:28:39;97500.13;;;9.13;100.00
70343;BME280;57767;42.068;24.752;2023-04-04T01:29:41;97495.91;;;9.12;100.00
70343;BME280;57767;42.068;24.752;2023-04-04T01:30:44;97495.69;;;9.14;100.00
70343;BME280;57767;42.068;24.752;2023-04-04T01:31:56;97501.28;;;9.17;100.00
70343;BME280;57767;42.068;24.752;2023-04-04T01:33:12;97506.22;;;9.14;100.00
70343;BME280;57767;42.068;24.752;2023-04-04T01:34:43;97504.28;;;9.09;100.00
70343;BME280;57767;42.068;24.752;2023-04-04T01:37:14;97495.91;;;9.12;100.00
70343;BME280;57767;42.068;24.752;2023-04-04T01:39:52;97469.50;;;8.95;100.00
70343;BME280;57767;42.068;24.752;2023-04-04T01:41:06;97504.97;;;9.16;100.00
70343;BME280;57767;42.068;24.752;2023-04-04T01:42:08;97497.41;;;9.20;100.00
70343;BME280;57767;42.068;24.752;2023-04-04T01:43:11;97495.00;;;9.18;100.00
70343;BME280;57767;42.068;24.752;2023-04-04T01:44:16;97495.78;;;9.19;100.00
70343;BME280;57767;42.068;24.752;2023-04-04T01:45:20;97493.50;;;9.22;100.00
70343;BME280;57767;42.068;24.752;2023-04-04T01:46:22;97500.13;;;9.25;100.00
70343;BME280;57767;42.068;24.752;2023-04-04T01:47:23;97475.88;;;9.23;100.00
70343;BME280;57767;42.068;24.752;2023-04-04T01:48:25;97495.13;;;9.23;100.00
70343;BME280;57767;42.068;24.752;2023-04-04T01:49:27;97492.72;;;9.22;100.00
70343;BME280;57767;42.068;24.752;2023-04-04T01:50:30;97480.34;;;9.22;100.00
70343;BME280;57767;42.068;24.752;2023-04-04T01:51:32;97490.84;;;9.34;100.00
70343;BME280;57767;42.068;24.752;2023-04-04T01:52:35;97495.66;;;9.37;100.00
70343;BME280;57767;42.068;24.752;2023-04-04T01:53:37;97486.16;;;9.36;100.00
70343;BME280;57767;42.068;24.752;2023-04-04T01:54:39;97481.00;;;9.29;100.00
70343;BME280;57767;42.068;24.752;2023-04-04T01:55:40;97482.16;;;9.33;100.00
70343;BME280;57767;42.068;24.752;2023-04-04T01:56:42;97489.25;;;9.33;100.00
70343;BME280;57767;42.068;24.752;2023-04-04T01:57:44;97496.19;;;9.39;100.00
70343;BME280;57767;42.068;24.752;2023-04-04T01:58:46;97492.31;;;9.42;100.00
70343;BME280;57767;42.068;24.752;2023-04-04T01:59:48;97496.78;;;9.41;100.00
70343;BME280;57767;42.068;24.752;2023-04-04T02:00:50;97484.75;;;9.45;100.00
70343;BME280;57767;42.068;24.752;2023-04-04T02:01:52;97486.13;;;9.48;100.00
70343;BME280;57767;42.068;24.752;2023-04-04T02:02:54;97470.19;;;9.43;100.00
70343;BME280;57767;42.068;24.752;2023-04-04T02:03:56;97480.63;;;9.49;100.00
70343;BME280;57767;42.068;24.752;2023-04-04T02:04:58;97482.44;;;9.49;100.00
70343;BME280;57767;42.068;24.752;2023-04-04T02:06:00;97486.69;;;9.50;100.00
70343;BME280;57767;42.068;24.752;2023-04-04T02:07:02;97487.72;;;9.49;100.00
70343;BME280;57767;42.068;24.752;2023-04-04T02:08:04;97487.94;;;9.47;100.00
70343;BME280;57767;42.068;24.752;2023-04-04T02:09:06;97499.13;;;9.54;100.00
70343;BME280;57767;42.068;24.752;2023-04-04T02:10:08;97503.84;;;9.52;100.00
70343;BME280;57767;42.068;24.752;2023-04-04T02:11:09;97496.97;;;9.51;100.00
70343;BME280;57767;42.068;24.752;2023-04-04T02:12:12;97504.41;;;9.54;100.00
70343;BME280;57767;42.068;24.752;2023-04-04T02:13:14;97495.13;;;9.52;100.00
70343;BME280;57767;42.068;24.752;2023-04-04T02:14:16;97500.28;;;9.58;100.00
70343;BME280;57767;42.068;24.752;2023-04-04T02:15:17;97493.63;;;9.56;100.00
70343;BME280;57767;42.068;24.752;2023-04-04T02:16:19;97496.03;;;9.57;100.00
70343;BME280;57767;42.068;24.752;2023-04-04T02:17:21;97490.44;;;9.54;100.00
70343;BME280;57767;42.068;24.752;2023-04-04T02:18:23;97497.41;;;9.60;100.00
70343;BME280;57767;42.068;24.752;2023-04-04T02:19:26;97494.44;;;9.56;100.00
70343;BME280;57767;42.068;24.752;2023-04-04T02:20:28;97495.00;;;9.58;100.00
70343;BME280;57767;42.068;24.752;2023-04-04T02:21:30;97490.88;;;9.62;100.00
70343;BME280;57767;42.068;24.752;2023-04-04T02:22:31;97489.81;;;9.63;100.00
70343;BME280;57767;42.068;24.752;2023-04-04T02:23:33;97486.31;;;9.58;100.00
70343;BME280;57767;42.068;24.752;2023-04-04T02:24:35;97490.41;;;9.65;100.00
70343;BME280;57767;42.068;24.752;2023-04-04T02:25:37;97493.94;;;9.71;100.00
70343;BME280;57767;42.068;24.752;2023-04-04T02:26:38;97487.63;;;9.72;100.00
70343;BME280;57767;42.068;24.752;2023-04-04T02:27:41;97482.59;;;9.70;100.00
70343;BME280;57767;42.068;24.752;2023-04-04T02:28:42;97497.44;;;9.77;100.00
70343;BME280;57767;42.068;24.752;2023-04-04T02:29:44;97502.06;;;9.69;100.00
70343;BME280;57767;42.068;24.752;2023-04-04T02:30:46;97502.06;;;9.69;100.00
70343;BME280;57767;42.068;24.752;2023-04-04T02:31:47;97495.19;;;9.68;100.00
70343;BME280;57767;42.068;24.752;2023-04-04T02:32:49;97496.00;;;9.69;100.00
70343;BME280;57767;42.068;24.752;2023-04-04T02:33:51;97504.00;;;9.74;100.00
70343;BME280;57767;42.068;24.752;2023-04-04T02:34:53;97497.06;;;9.56;100.00
70343;BME280;57767;42.068;24.752;2023-04-04T02:35:58;97491.13;;;9.61;100.00
70343;BME280;57767;42.068;24.752;2023-04-04T02:37:00;97493.81;;;9.66;100.00
70343;BME280;57767;42.068;24.752;2023-04-04T02:38:02;97492.34;;;9.70;100.00
70343;BME280;57767;42.068;24.752;2023-04-04T02:39:04;97495.94;;;9.81;100.00
70343;BME280;57767;42.068;24.752;2023-04-04T02:40:06;97490.56;;;9.87;100.00
70343;BME280;57767;42.068;24.752;2023-04-04T02:41:08;97489.59;;;9.93;100.00
70343;BME280;57767;42.068;24.752;2023-04-04T02:42:11;97488.09;;;9.97;100.00
70343;BME280;57767;42.068;24.752;2023-04-04T02:43:12;97482.03;;;9.97;100.00
70343;BME280;57767;42.068;24.752;2023-04-04T02:44:14;97482.09;;;10.02;100.00
70343;BME280;57767;42.068;24.752;2023-04-04T02:45:16;97477.06;;;10.00;100.00
70343;BME280;57767;42.068;24.752;2023-04-04T02:46:18;97485.97;;;10.11;100.00
70343;BME280;57767;42.068;24.752;2023-04-04T02:47:22;97480.69;;;10.11;100.00
70343;BME280;57767;42.068;24.752;2023-04-04T02:48:24;97487.28;;;10.14;100.00
70343;BME280;57767;42.068;24.752;2023-04-04T02:49:26;97479.16;;;10.15;100.00
70343;BME280;57767;42.068;24.752;2023-04-04T02:50:29;97486.63;;;10.18;100.00
70343;BME280;57767;42.068;24.752;2023-04-04T02:51:31;97474.25;;;10.19;99.89
70343;BME280;57767;42.068;24.752;2023-04-04T02:52:33;97467.94;;;10.20;99.53
70343;BME280;57767;42.068;24.752;2023-04-04T02:53:35;97479.38;;;10.25;99.67
70343;BME280;57767;42.068;24.752;2023-04-04T02:54:37;97480.47;;;10.29;99.29
70343;BME280;57767;42.068;24.752;2023-04-04T02:55:39;97475.44;;;10.28;98.74
70343;BME280;57767;42.068;24.752;2023-04-04T02:56:41;97481.59;;;10.33;99.33
70343;BME280;57767;42.068;24.752;2023-04-04T02:57:49;97482.16;;;10.35;98.67
70343;BME280;57767;42.068;24.752;2023-04-04T02:58:51;97481.69;;;10.38;98.59
70343;BME280;57767;42.068;24.752;2023-04-04T02:59:53;97479.34;;;10.42;98.84
70343;BME280;57767;42.068;24.752;2023-04-04T03:00:55;97474.88;;;10.43;98.40
70343;BME280;57767;42.068;24.752;2023-04-04T03:01:57;97485.44;;;10.43;97.83
70343;BME280;57767;42.068;24.752;2023-04-04T03:02:58;97486.19;;;10.38;98.36
70343;BME280;57767;42.068;24.752;2023-04-04T03:04:00;97484.88;;;10.40;97.39
70343;BME280;57767;42.068;24.752;2023-04-04T03:05:05;97488.63;;;10.45;98.32
70343;BME280;57767;42.068;24.752;2023-04-04T03:06:07;97489.78;;;10.49;97.98
70343;BME280;57767;42.068;24.752;2023-04-04T03:07:09;97484.97;;;10.46;97.34
70343;BME280;57767;42.068;24.752;2023-04-04T03:08:11;97490.88;;;10.53;98.38
70343;BME280;57767;42.068;24.752;2023-04-04T03:09:13;97475.22;;;10.46;97.43
70343;BME280;57767;42.068;24.752;2023-04-04T03:10:15;97481.91;;;10.54;97.53
70343;BME280;57767;42.068;24.752;2023-04-04T03:11:17;97489.44;;;10.62;97.45
70343;BME280;57767;42.068;24.752;2023-04-04T03:12:22;97484.41;;;10.60;97.68
70343;BME280;57767;42.068;24.752;2023-04-04T03:13:23;97482.09;;;10.47;96.79
70343;BME280;57767;42.068;24.752;2023-04-04T03:14:25;97482.41;;;10.51;96.36
70343;BME280;57767;42.068;24.752;2023-04-04T03:15:27;97484.25;;;10.50;97.00
70343;BME280;57767;42.068;24.752;2023-04-04T03:16:29;97479.44;;;10.47;96.65
70343;BME280;57767;42.068;24.752;2023-04-04T03:17:31;97493.50;;;10.53;96.92
70343;BME280;57767;42.068;24.752;2023-04-04T03:18:33;97489.25;;;10.52;97.29
70343;BME280;57767;42.068;24.752;2023-04-04T03:19:35;97487.94;;;10.49;97.02
70343;BME280;57767;42.068;24.752;2023-04-04T03:20:37;97489.03;;;10.53;96.99
70343;BME280;57767;42.068;24.752;2023-04-04T03:21:39;97493.44;;;10.48;96.95
70343;BME280;57767;42.068;24.752;2023-04-04T03:22:41;97492.66;;;10.47;96.66
70343;BME280;57767;42.068;24.752;2023-04-04T03:23:42;97488.31;;;10.41;97.23
70343;BME280;57767;42.068;24.752;2023-04-04T03:24:44;97491.19;;;10.39;97.43
70343;BME280;57767;42.068;24.752;2023-04-04T03:25:46;97498.06;;;10.40;97.57
70343;BME280;57767;42.068;24.752;2023-04-04T03:26:48;97496.00;;;10.43;98.10
70343;BME280;57767;42.068;24.752;2023-04-04T03:27:50;97494.56;;;10.35;97.77
70343;BME280;57767;42.068;24.752;2023-04-04T03:28:52;97496.47;;;10.39;97.64
70343;BME280;57767;42.068;24.752;2023-04-04T03:29:53;97497.75;;;10.37;98.22
70343;BME280;57767;42.068;24.752;2023-04-04T03:30:55;97503.50;;;10.34;98.20
70343;BME280;57767;42.068;24.752;2023-04-04T03:31:57;97499.19;;;10.28;98.26
70343;BME280;57767;42.068;24.752;2023-04-04T03:33:02;97508.38;;;10.25;98.20
70343;BME280;57767;42.068;24.752;2023-04-04T03:34:05;97512.31;;;10.23;98.69
70343;BME280;57767;42.068;24.752;2023-04-04T03:35:07;97509.31;;;10.19;98.27
70343;BME280;57767;42.068;24.752;2023-04-04T03:36:12;97503.91;;;10.14;98.54
70343;BME280;57767;42.068;24.752;2023-04-04T03:37:14;97521.72;;;10.19;98.55
70343;BME280;57767;42.068;24.752;2023-04-04T03:38:16;97518.84;;;10.20;98.36
70343;BME280;57767;42.068;24.752;2023-04-04T03:39:18;97512.91;;;10.13;99.49
70343;BME280;57767;42.068;24.752;2023-04-04T03:40:20;97509.19;;;10.14;98.89
70343;BME280;57767;42.068;24.752;2023-04-04T03:41:22;97516.66;;;10.17;99.17
70343;BME280;57767;42.068;24.752;2023-04-04T03:42:24;97512.78;;;10.20;98.49
70343;BME280;57767;42.068;24.752;2023-04-04T03:43:27;97517.25;;;10.19;98.59
70343;BME280;57767;42.068;24.752;2023-04-04T03:44:28;97509.19;;;10.14;98.52
70343;BME280;57767;42.068;24.752;2023-04-04T03:45:32;97512.09;;;10.13;98.63
70343;BME280;57767;42.068;24.752;2023-04-04T03:46:36;97518.31;;;10.06;98.73
70343;BME280;57767;42.068;24.752;2023-04-04T03:47:38;97516.56;;;10.12;98.64
70343;BME280;57767;42.068;24.752;2023-04-04T03:48:39;97512.34;;;10.11;99.13
70343;BME280;57767;42.068;24.752;2023-04-04T03:49:41;97518.72;;;10.15;98.68
70343;BME280;57767;42.068;24.752;2023-04-04T03:50:43;97514.00;;;10.17;98.67
70343;BME280;57767;42.068;24.752;2023-04-04T03:51:44;97519.88;;;10.19;98.65
70343;BME280;57767;42.068;24.752;2023-04-04T03:52:46;97521.25;;;10.22;99.13
70343;BME280;57767;42.068;24.752;2023-04-04T03:53:48;97518.47;;;10.17;97.86
70343;BME280;57767;42.068;24.752;2023-04-04T03:54:50;97527.19;;;10.17;98.59
70343;BME280;57767;42.068;24.752;2023-04-04T03:55:54;97522.06;;;10.22;97.98
70343;BME280;57767;42.068;24.752;2023-04-04T03:56:56;97522.16;;;10.16;98.54
70343;BME280;57767;42.068;24.752;2023-04-04T03:57:58;97518.38;;;10.23;98.40
70343;BME280;57767;42.068;24.752;2023-04-04T03:59:00;97519.28;;;10.17;98.50
70343;BME280;57767;42.068;24.752;2023-04-04T04:00:03;97525.56;;;10.28;98.00
70343;BME280;57767;42.068;24.752;2023-04-04T04:01:05;97537.47;;;10.30;98.37
70343;BME280;57767;42.068;24.752;2023-04-04T04:02:07;97538.28;;;10.31;98.64
70343;BME280;57767;42.068;24.752;2023-04-04T04:03:08;97532.13;;;10.25;98.21
70343;BME280;57767;42.068;24.752;2023-04-04T04:04:11;97542.22;;;10.17;97.22
70343;BME280;57767;42.068;24.752;2023-04-04T04:05:12;97539.00;;;10.15;97.39
70343;BME280;57767;42.068;24.752;2023-04-04T04:06:14;97529.75;;;10.12;97.64
70343;BME280;57767;42.068;24.752;2023-04-04T04:07:16;97534.66;;;10.20;97.45
70343;BME280;57767;42.068;24.752;2023-04-04T04:08:18;97529.41;;;10.20;98.24
70343;BME280;57767;42.068;24.752;2023-04-04T04:09:20;97529.84;;;10.17;97.71
70343;BME280;57767;42.068;24.752;2023-04-04T04:10:21;97530.63;;;10.18;97.41
70343;BME280;57767;42.068;24.752;2023-04-04T04:11:23;97538.09;;;10.21;97.30
70343;BME280;57767;42.068;24.752;2023-04-04T04:12:25;97529.03;;;10.17;97.32
70343;BME280;57767;42.068;24.752;2023-04-04T04:13:27;97537.41;;;10.25;96.87
70343;BME280;57767;42.068;24.752;2023-04-04T04:14:29;97531.34;;;10.25;96.10
70343;BME280;57767;42.068;24.752;2023-04-04T04:15:31;97523.56;;;10.18;96.89
70343;BME280;57767;42.068;24.752;2023-04-04T04:16:33;97535.09;;;10.17;96.87
70343;BME280;57767;42.068;24.752;2023-04-04T04:17:39;97534.38;;;10.05;96.80
70343;BME280;57767;42.068;24.752;2023-04-04T04:18:41;97529.88;;;10.05;96.90
70343;BME280;57767;42.068;24.752;2023-04-04T04:19:43;97534.00;;;10.13;96.88
70343;BME280;57767;42.068;24.752;2023-04-04T04:20:44;97538.78;;;10.16;97.84
70343;BME280;57767;42.068;24.752;2023-04-04T04:21:46;97537.41;;;10.25;97.31
70343;BME280;57767;42.068;24.752;2023-04-04T04:22:48;97537.41;;;10.25;96.82
70343;BME280;57767;42.068;24.752;2023-04-04T04:23:52;97527.19;;;10.17;97.35
70343;BME280;57767;42.068;24.752;2023-04-04T04:24:54;97535.00;;;10.24;97.21
70343;BME280;57767;42.068;24.752;2023-04-04T04:25:56;97524.22;;;10.14;97.70
70343;BME280;57767;42.068;24.752;2023-04-04T04:26:58;97537.97;;;10.16;98.32
70343;BME280;57767;42.068;24.752;2023-04-04T04:27:59;97525.56;;;9.99;98.63
70343;BME280;57767;42.068;24.752;2023-04-04T04:29:01;97534.28;;;10.00;99.00
70343;BME280;57767;42.068;24.752;2023-04-04T04:30:03;97525.94;;;9.91;99.89
70343;BME280;57767;42.068;24.752;2023-04-04T04:31:06;97540.16;;;9.90;100.00
70343;BME280;57767;42.068;24.752;2023-04-04T04:32:08;97540.94;;;9.91;100.00
70343;BME280;57767;42.068;24.752;2023-04-04T04:33:11;97537.28;;;9.92;100.00
70343;BME280;57767;42.068;24.752;2023-04-04T04:34:13;97525.63;;;9.88;100.00
70343;BME280;57767;42.068;24.752;2023-04-04T04:35:15;97538.31;;;9.91;100.00
70343;BME280;57767;42.068;24.752;2023-04-04T04:36:17;97536.72;;;9.90;100.00
70343;BME280;57767;42.068;24.752;2023-04-04T04:37:19;97525.53;;;9.83;100.00
70343;BME280;57767;42.068;24.752;2023-04-04T04:38:21;97530.00;;;9.82;100.00
70343;BME280;57767;42.068;24.752;2023-04-04T04:39:22;97538.69;;;9.83;100.00
70343;BME280;57767;42.068;24.752;2023-04-04T04:40:24;97531.72;;;9.77;100.00
70343;BME280;57767;42.068;24.752;2023-04-04T04:41:26;97543.28;;;9.76;100.00
70343;BME280;57767;42.068;24.752;2023-04-04T04:42:29;97543.28;;;9.76;100.00
70343;BME280;57767;42.068;24.752;2023-04-04T04:43:31;97546.50;;;9.78;100.00
70343;BME280;57767;42.068;24.752;2023-04-04T04:44:33;97534.84;;;9.74;100.00
70343;BME280;57767;42.068;24.752;2023-04-04T04:45:35;97537.47;;;9.74;100.00
70343;BME280;57767;42.068;24.752;2023-04-04T04:46:37;97539.31;;;9.73;100.00
70343;BME280;57767;42.068;24.752;2023-04-04T04:47:39;97540.91;;;9.74;100.00
70343;BME280;57767;42.068;24.752;2023-04-04T04:48:41;97549.06;;;9.73;100.00
70343;BME280;57767;42.068;24.752;2023-04-04T04:49:43;97548.03;;;9.74;100.00
70343;BME280;57767;42.068;24.752;2023-04-04T04:50:48;97553.63;;;9.65;100.00
70343;BME280;57767;42.068;24.752;2023-04-04T04:51:50;97558.47;;;9.68;100.00
70343;BME280;57767;42.068;24.752;2023-04-04T04:52:51;97544.25;;;9.69;100.00
70343;BME280;57767;42.068;24.752;2023-04-04T04:53:53;97545.84;;;9.70;100.00
70343;BME280;57767;42.068;24.752;2023-04-04T04:54:55;97547.81;;;9.63;100.00
70343;BME280;57767;42.068;24.752;2023-04-04T04:55:57;97549.88;;;9.61;100.00
70343;BME280;57767;42.068;24.752;2023-04-04T04:56:58;97549.88;;;9.61;100.00
70343;BME280;57767;42.068;24.752;2023-04-04T04:58:01;97541.50;;;9.64;100.00
70343;BME280;57767;42.068;24.752;2023-04-04T04:59:04;97542.63;;;9.68;100.00
70343;BME280;57767;42.068;24.752;2023-04-04T05:00:08;97539.78;;;9.70;100.00
70343;BME280;57767;42.068;24.752;2023-04-04T05:01:10;97537.13;;;9.70;100.00
70343;BME280;57767;42.068;24.752;2023-04-04T05:02:12;97539.09;;;9.75;100.00
70343;BME280;57767;42.068;24.752;2023-04-04T05:03:14;97525.09;;;9.74;100.00
70343;BME280;57767;42.068;24.752;2023-04-04T05:04:16;97533.88;;;9.80;100.00
70343;BME280;57767;42.068;24.752;2023-04-04T05:05:18;97528.63;;;9.80;100.00
70343;BME280;57767;42.068;24.752;2023-04-04T05:06:20;97532.41;;;9.84;100.00
70343;BME280;57767;42.068;24.752;2023-04-04T05:07:22;97538.47;;;9.84;100.00
70343;BME280;57767;42.068;24.752;2023-04-04T05:08:24;97539.28;;;9.85;100.00
70343;BME280;57767;42.068;24.752;2023-04-04T05:09:25;97531.59;;;9.83;100.00
70343;BME280;57767;42.068;24.752;2023-04-04T05:10:28;97538.81;;;9.88;100.00
70343;BME280;57767;42.068;24.752;2023-04-04T05:11:30;97534.56;;;9.87;100.00
70343;BME280;57767;42.068;24.752;2023-04-04T05:12:32;97536.41;;;9.86;100.00
70343;BME280;57767;42.068;24.752;2023-04-04T05:13:33;97537.75;;;9.89;100.00
70343;BME280;57767;42.068;24.752;2023-04-04T05:14:35;97538.09;;;9.92;100.00
70343;BME280;57767;42.068;24.752;2023-04-04T05:15:37;97533.38;;;9.94;100.00
70343;BME280;57767;42.068;24.752;2023-04-04T05:16:39;97533.72;;;9.98;100.00
70343;BME280;57767;42.068;24.752;2023-04-04T05:17:40;97518.81;;;9.92;100.00
70343;BME280;57767;42.068;24.752;2023-04-04T05:18:43;97530.75;;;9.94;100.00
70343;BME280;57767;42.068;24.752;2023-04-04T05:19:44;97525.47;;;9.94;100.00
70343;BME280;57767;42.068;24.752;2023-04-04T05:20:53;97537.63;;;9.95;100.00
70343;BME280;57767;42.068;24.752;2023-04-04T05:21:55;97531.78;;;9.93;100.00
70343;BME280;57767;42.068;24.752;2023-04-04T05:22:57;97529.72;;;9.95;100.00
70343;BME280;57767;42.068;24.752;2023-04-04T05:23:58;97525.47;;;9.94;100.00
70343;BME280;57767;42.068;24.752;2023-04-04T05:25:00;97526.28;;;9.95;100.00
70343;BME280;57767;42.068;24.752;2023-04-04T05:26:02;97525.81;;;9.98;100.00
70343;BME280;57767;42.068;24.752;2023-04-04T05:27:04;97534.53;;;9.98;100.00
70343;BME280;57767;42.068;24.752;2023-04-04T05:28:06;97522.38;;;9.97;100.00
70343;BME280;57767;42.068;24.752;2023-04-04T05:29:08;97531.88;;;9.98;100.00
70343;BME280;57767;42.068;24.752;2023-04-04T05:30:10;97523.88;;;9.93;100.00